createdAt,value
2023-03-03T00:00:30.450Z,23.33
2023-03-03T00:02:59.907Z,22.80
2023-03-03T00:05:26.608Z,21.48
2023-03-03T00:07:53.272Z,22.02
2023-03-03T00:10:20.529Z,19.63
2023-03-03T00:12:48.872Z,23.23
2023-03-03T00:15:18.973Z,21.95
2023-03-03T00:17:46.508Z,21.00
2023-03-03T00:20:33.526Z,23.13
2023-03-03T00:23:23.688Z,22.35
2023-03-03T00:25:52.474Z,20.90
2023-03-03T00:28:22.979Z,21.55
2023-03-03T00:30:50.432Z,22.95
2023-03-03T00:33:28.612Z,22.27
2023-03-03T00:35:57.032Z,24.40
2023-03-03T00:38:24.336Z,20.83
2023-03-03T00:40:51.649Z,21.63
2023-03-03T00:43:19.769Z,19.58
2023-03-03T00:45:48.662Z,24.30
2023-03-03T00:48:24.482Z,21.88
2023-03-03T00:50:53.178Z,21.58
2023-03-03T00:53:21.182Z,20.10
2023-03-03T00:55:49.021Z,19.45
2023-03-03T00:58:16.425Z,20.27
2023-03-03T01:00:43.543Z,22.08
2023-03-03T01:03:13.318Z,23.05
2023-03-03T01:05:40.431Z,20.50
2023-03-03T01:08:08.128Z,21.60
2023-03-03T01:10:37.154Z,24.13
2023-03-03T01:13:04.781Z,21.67
2023-03-03T01:15:31.886Z,22.25
2023-03-03T01:17:59.043Z,22.25
2023-03-03T01:20:26.732Z,23.00
2023-03-03T01:22:53.875Z,22.63
2023-03-03T01:25:20.932Z,20.88
2023-03-03T01:27:48.001Z,21.23
2023-03-03T01:30:15.421Z,18.73
2023-03-03T01:32:42.501Z,24.33
2023-03-03T01:35:09.915Z,21.80
2023-03-03T01:37:37.140Z,21.80
2023-03-03T01:40:07.231Z,19.95
2023-03-03T01:42:34.430Z,21.98
2023-03-03T01:45:21.535Z,20.15
2023-03-03T01:47:59.482Z,21.30
2023-03-03T01:50:30.225Z,19.95
2023-03-03T01:52:58.973Z,22.45
2023-03-03T01:55:29.533Z,24.47
2023-03-03T01:57:59.720Z,22.25
2023-03-03T02:00:27.860Z,19.77
2023-03-03T02:02:55.631Z,22.60
2023-03-03T02:05:23.007Z,22.25
2023-03-03T02:07:50.084Z,19.65
2023-03-03T02:10:20.360Z,19.58
2023-03-03T02:12:50.710Z,21.88
2023-03-03T02:15:19.015Z,23.58
2023-03-03T02:17:47.420Z,23.08
2023-03-03T02:20:19.147Z,24.38
2023-03-03T02:22:54.433Z,19.73
2023-03-03T02:25:27.156Z,22.23
2023-03-03T02:27:54.322Z,20.10
2023-03-03T02:30:24.105Z,23.65
2023-03-03T02:32:51.200Z,21.80
2023-03-03T02:35:26.527Z,22.10
2023-03-03T02:37:54.248Z,21.97
2023-03-03T02:40:25.000Z,22.50
2023-03-03T02:42:52.755Z,20.98
2023-03-03T02:45:19.866Z,20.90
2023-03-03T02:47:51.513Z,24.92
2023-03-03T02:50:18.790Z,22.80
2023-03-03T02:52:45.895Z,22.20
2023-03-03T02:55:12.918Z,24.05
2023-03-03T02:57:40.091Z,22.40
2023-03-03T03:00:07.581Z,21.73
2023-03-03T03:02:34.704Z,21.17
2023-03-03T03:05:01.884Z,23.58
2023-03-03T03:07:29.032Z,21.97
2023-03-03T03:09:56.219Z,20.77
2023-03-03T03:12:23.541Z,25.75
2023-03-03T03:14:50.568Z,25.67
2023-03-03T03:17:17.823Z,19.83
2023-03-03T03:19:44.934Z,19.88
2023-03-03T03:22:12.010Z,22.48
2023-03-03T03:24:39.124Z,22.97
2023-03-03T03:27:06.320Z,23.97
2023-03-03T03:29:33.371Z,24.35
2023-03-03T03:32:00.469Z,24.52
2023-03-03T03:34:27.689Z,22.65
2023-03-03T03:36:54.797Z,21.95
2023-03-03T03:39:21.939Z,22.23
2023-03-03T03:41:49.035Z,23.13
2023-03-03T03:44:16.152Z,19.83
2023-03-03T03:46:43.293Z,22.13
2023-03-03T03:49:10.340Z,22.15
2023-03-03T03:51:41.232Z,25.15
2023-03-03T03:54:08.825Z,24.07
2023-03-03T03:56:36.018Z,23.63
2023-03-03T03:59:03.151Z,24.38
2023-03-03T04:01:30.205Z,21.58
2023-03-03T04:03:57.373Z,23.25
2023-03-03T04:06:24.467Z,21.80
2023-03-03T04:08:51.499Z,22.23
2023-03-03T04:11:18.654Z,21.67
2023-03-03T04:13:45.824Z,24.95
2023-03-03T04:16:13.011Z,22.25
2023-03-03T04:18:40.116Z,22.83
2023-03-03T04:21:07.269Z,25.00
2023-03-03T04:23:34.370Z,25.13
2023-03-03T04:26:01.412Z,22.23
2023-03-03T04:28:28.535Z,23.20
2023-03-03T04:30:55.724Z,23.43
2023-03-03T04:33:22.882Z,24.10
2023-03-03T04:35:50.152Z,24.83
2023-03-03T04:38:17.306Z,25.20
2023-03-03T04:40:44.402Z,24.63
2023-03-03T04:43:11.756Z,22.92
2023-03-03T04:45:38.932Z,20.77
2023-03-03T04:48:06.314Z,22.55
2023-03-03T04:50:34.795Z,26.33
2023-03-03T04:53:01.976Z,21.92
2023-03-03T04:55:29.041Z,23.00
2023-03-03T04:57:56.278Z,23.88
2023-03-03T05:00:23.370Z,21.58
2023-03-03T05:02:50.521Z,22.60
2023-03-03T05:05:17.355Z,25.40
2023-03-03T05:07:44.598Z,33.83
2023-03-03T05:10:11.890Z,35.92
2023-03-03T05:12:39.198Z,31.15
2023-03-03T05:15:06.720Z,27.35
2023-03-03T05:17:33.903Z,25.07
2023-03-03T05:20:00.977Z,30.65
2023-03-03T05:22:28.378Z,36.42
2023-03-03T05:24:55.556Z,34.80
2023-03-03T05:27:22.618Z,32.08
2023-03-03T05:29:49.446Z,27.75
2023-03-03T05:32:16.566Z,30.50
2023-03-03T05:34:43.805Z,31.67
2023-03-03T05:37:11.012Z,32.83
2023-03-03T05:39:38.180Z,34.00
2023-03-03T05:42:05.307Z,28.90
2023-03-03T05:44:32.417Z,31.88
2023-03-03T05:46:59.586Z,26.25
2023-03-03T05:49:27.329Z,24.95
2023-03-03T05:51:54.496Z,26.38
2023-03-03T05:54:21.654Z,32.15
2023-03-03T05:56:48.851Z,32.78
2023-03-03T05:59:15.934Z,31.03
2023-03-03T06:01:43.192Z,32.58
2023-03-03T06:04:10.321Z,28.60
2023-03-03T06:06:37.196Z,26.77
2023-03-03T06:09:04.810Z,25.38
2023-03-03T06:11:31.933Z,26.50
2023-03-03T06:13:59.080Z,23.70
2023-03-03T06:16:26.185Z,24.27
2023-03-03T06:18:53.316Z,27.73
2023-03-03T06:21:20.448Z,25.33
2023-03-03T06:23:47.651Z,27.83
2023-03-03T06:26:14.762Z,29.27
2023-03-03T06:28:41.825Z,33.72
2023-03-03T06:31:08.954Z,30.23
2023-03-03T06:33:35.615Z,29.33
2023-03-03T06:36:05.371Z,30.50
2023-03-03T06:38:32.823Z,30.17
2023-03-03T06:41:02.144Z,29.17
2023-03-03T06:43:29.265Z,27.45
2023-03-03T06:45:56.376Z,27.25
2023-03-03T06:48:23.545Z,28.00
2023-03-03T06:50:50.635Z,27.67
2023-03-03T06:53:19.130Z,25.80
2023-03-03T06:55:46.731Z,25.60
2023-03-03T06:58:15.674Z,25.23
2023-03-03T07:00:44.294Z,27.10
2023-03-03T07:03:12.407Z,24.83
2023-03-03T07:05:39.541Z,25.45
2023-03-03T07:08:07.903Z,26.80
2023-03-03T07:10:35.026Z,25.60
2023-03-03T07:13:12.024Z,26.27
2023-03-03T07:15:39.143Z,25.03
2023-03-03T07:18:16.714Z,26.88
2023-03-03T07:20:44.055Z,25.05
2023-03-03T07:23:19.664Z,26.37
2023-03-03T07:25:46.795Z,25.08
2023-03-03T07:28:13.859Z,27.13
2023-03-03T07:30:41.337Z,24.42
2023-03-03T07:33:12.754Z,25.73
2023-03-03T07:35:42.235Z,25.30
2023-03-03T07:38:29.643Z,24.98
2023-03-03T07:40:58.171Z,25.55
2023-03-03T07:43:28.606Z,26.00
2023-03-03T07:46:03.608Z,26.63
2023-03-03T07:48:40.953Z,27.17
2023-03-03T07:51:26.899Z,24.35
2023-03-03T07:54:01.851Z,23.95
2023-03-03T07:56:35.453Z,25.47
2023-03-03T07:59:08.291Z,24.67
2023-03-03T08:01:39.819Z,27.17
2023-03-03T08:04:17.548Z,25.83
2023-03-03T08:06:47.322Z,26.23
2023-03-03T08:09:30.002Z,27.55
2023-03-03T08:12:16.957Z,28.70
2023-03-03T08:14:44.075Z,30.45
2023-03-03T08:17:21.525Z,31.13
2023-03-03T08:19:49.105Z,27.98
2023-03-03T08:22:18.252Z,29.20
2023-03-03T08:24:45.440Z,28.00
2023-03-03T08:27:12.568Z,37.33
2023-03-03T08:29:39.706Z,36.53
2023-03-03T08:32:06.876Z,35.13
2023-03-03T08:34:34.058Z,34.15
2023-03-03T08:37:01.127Z,35.20
2023-03-03T08:39:28.234Z,35.85
2023-03-03T08:41:55.312Z,34.53
2023-03-03T08:44:22.411Z,35.00
2023-03-03T08:46:49.568Z,34.10
2023-03-03T08:49:16.299Z,37.33
2023-03-03T08:51:43.361Z,33.88
2023-03-03T08:54:10.556Z,33.80
2023-03-03T08:56:37.734Z,32.25
2023-03-03T08:59:04.876Z,33.05
2023-03-03T09:01:33.035Z,31.60
2023-03-03T09:03:59.880Z,32.95
2023-03-03T09:06:26.805Z,33.10
2023-03-03T09:08:54.881Z,33.63
2023-03-03T09:11:26.244Z,33.05
2023-03-03T09:13:59.082Z,33.60
2023-03-03T09:16:27.398Z,33.03
2023-03-03T09:18:54.574Z,30.33
2023-03-03T09:21:23.694Z,29.10
2023-03-03T09:23:54.503Z,29.73
2023-03-03T09:26:39.753Z,29.98
2023-03-03T09:29:19.458Z,27.48
2023-03-03T09:31:51.965Z,27.33
2023-03-03T09:34:23.695Z,25.83
2023-03-03T09:36:52.749Z,27.40
2023-03-03T09:39:22.866Z,31.15
2023-03-03T09:42:09.902Z,29.23
2023-03-03T09:44:49.656Z,28.63
2023-03-03T09:47:35.217Z,25.35
2023-03-03T09:50:09.352Z,26.15
2023-03-03T09:53:03.949Z,25.60
2023-03-03T09:56:10.462Z,26.50
2023-03-03T09:58:57.029Z,25.90
2023-03-03T10:02:05.442Z,26.08
2023-03-03T10:04:43.677Z,27.77
2023-03-03T10:07:31.264Z,27.88
2023-03-03T10:10:38.737Z,24.52
2023-03-03T10:13:20.041Z,26.35
2023-03-03T10:16:08.023Z,27.50
2023-03-03T10:18:45.988Z,25.08
2023-03-03T10:21:20.192Z,23.80
2023-03-03T10:24:02.816Z,26.58
2023-03-03T10:26:46.345Z,23.40
2023-03-03T10:29:45.453Z,27.13
2023-03-03T10:32:30.440Z,24.95
2023-03-03T10:35:18.540Z,24.08
2023-03-03T10:38:00.910Z,21.80
2023-03-03T10:40:34.951Z,23.47
2023-03-03T10:43:19.735Z,27.48
2023-03-03T10:46:15.890Z,21.73
2023-03-03T10:49:02.228Z,24.35
2023-03-03T10:51:29.782Z,23.20
2023-03-03T10:54:22.609Z,24.92
2023-03-03T10:57:03.012Z,22.67
2023-03-03T10:59:52.901Z,24.25
2023-03-03T11:02:27.398Z,21.85
2023-03-03T11:05:19.086Z,23.48
2023-03-03T11:07:51.809Z,22.27
2023-03-03T11:10:30.282Z,21.10
2023-03-03T11:13:13.687Z,21.92
2023-03-03T11:16:00.841Z,22.67
2023-03-03T11:18:42.303Z,23.30
2023-03-03T11:21:23.099Z,22.17
2023-03-03T11:24:15.419Z,19.27
2023-03-03T11:26:49.678Z,23.48
2023-03-03T11:29:44.672Z,22.05
2023-03-03T11:32:11.747Z,20.85
2023-03-03T11:34:59.396Z,21.75
2023-03-03T11:37:37.156Z,21.77
2023-03-03T11:40:16.743Z,20.77
2023-03-03T11:43:10.788Z,19.93
2023-03-03T11:45:49.604Z,18.55
2023-03-03T11:48:25.378Z,21.08
2023-03-03T11:51:05.121Z,19.17
2023-03-03T11:53:44.624Z,17.17
2023-03-03T11:56:18.726Z,18.73
2023-03-03T11:58:53.994Z,21.08
2023-03-03T12:01:28.908Z,19.43
2023-03-03T12:04:22.835Z,19.77
2023-03-03T12:07:19.339Z,19.58
2023-03-03T12:10:03.050Z,20.33
2023-03-03T12:12:52.751Z,19.48
2023-03-03T12:15:46.183Z,21.77
2023-03-03T12:18:23.808Z,20.83
2023-03-03T12:24:25.716Z,21.25
2023-03-03T12:27:12.765Z,19.45
2023-03-03T12:29:56.050Z,20.70
2023-03-03T12:32:42.619Z,19.98
2023-03-03T12:35:25.148Z,17.73
2023-03-03T12:37:52.841Z,20.00
2023-03-03T12:40:24.826Z,19.13
2023-03-03T12:43:17.445Z,17.80
2023-03-03T12:45:53.951Z,19.92
2023-03-03T12:48:33.332Z,18.45
2023-03-03T12:51:14.908Z,18.47
2023-03-03T12:54:09.107Z,17.95
2023-03-03T12:56:41.517Z,19.00
2023-03-03T12:59:18.226Z,19.80
2023-03-03T13:01:53.836Z,17.80
2023-03-03T13:04:42.034Z,18.38
2023-03-03T13:07:19.576Z,17.80
2023-03-03T13:09:49.887Z,18.70
2023-03-03T13:12:36.581Z,18.90
2023-03-03T13:15:32.233Z,17.92
2023-03-03T13:18:19.891Z,14.30
2023-03-03T13:20:53.847Z,18.27
2023-03-03T13:23:40.429Z,17.77
2023-03-03T13:26:23.032Z,16.75
2023-03-03T13:29:03.540Z,15.50
2023-03-03T13:31:34.586Z,20.88
2023-03-03T13:34:02.552Z,16.25
2023-03-03T13:36:40.312Z,16.38
2023-03-03T13:39:19.543Z,18.25
2023-03-03T13:42:01.405Z,17.88
2023-03-03T13:44:42.514Z,15.70
2023-03-03T13:47:35.961Z,14.13
2023-03-03T13:50:19.342Z,17.55
2023-03-03T13:52:55.229Z,18.40
2023-03-03T13:55:44.480Z,16.93
2023-03-03T13:58:21.049Z,16.17
2023-03-03T14:01:01.912Z,15.95
2023-03-03T14:03:29.057Z,16.05
2023-03-03T14:06:04.530Z,16.67
2023-03-03T14:08:58.801Z,15.90
2023-03-03T14:11:52.304Z,17.70
2023-03-03T14:14:25.761Z,14.80
2023-03-03T14:17:22.978Z,16.43
2023-03-03T14:20:02.285Z,17.08
2023-03-03T14:22:52.874Z,15.30
2023-03-03T14:25:20.038Z,16.17
2023-03-03T14:27:46.704Z,15.15
2023-03-03T14:30:28.327Z,15.88
2023-03-03T14:33:09.196Z,16.58
2023-03-03T14:35:42.339Z,15.65
2023-03-03T14:38:08.986Z,14.98
2023-03-03T14:40:38.844Z,13.63
2023-03-03T14:43:19.401Z,15.10
2023-03-03T14:45:46.107Z,16.13
2023-03-03T14:48:24.325Z,14.48
2023-03-03T14:50:56.576Z,14.98
2023-03-03T14:53:35.572Z,15.43
2023-03-03T14:56:24.848Z,14.55
2023-03-03T14:58:54.208Z,13.75
2023-03-03T15:01:34.019Z,15.60
2023-03-03T15:04:05.690Z,15.30
2023-03-03T15:06:40.293Z,14.25
2023-03-03T15:09:29.737Z,15.55
2023-03-03T15:11:58.544Z,14.20
2023-03-03T15:14:32.436Z,13.20
2023-03-03T15:17:19.839Z,13.27
2023-03-03T15:19:55.449Z,14.02
2023-03-03T15:22:45.626Z,14.05
2023-03-03T15:25:25.679Z,11.82
2023-03-03T15:28:16.097Z,13.77
2023-03-03T15:30:44.758Z,12.95
2023-03-03T15:33:20.753Z,12.30
2023-03-03T15:35:52.637Z,13.10
2023-03-03T15:38:42.686Z,12.07
2023-03-03T15:41:31.033Z,11.90
2023-03-03T15:44:24.383Z,12.02
2023-03-03T15:47:15.811Z,10.88
2023-03-03T15:49:52.870Z,11.20
2023-03-03T15:52:40.517Z,12.05
2023-03-03T15:55:47.038Z,12.90
2023-03-03T15:58:49.232Z,12.80
2023-03-03T16:01:35.948Z,12.90
2023-03-03T16:04:11.894Z,11.88
2023-03-03T16:06:39.622Z,12.27
2023-03-03T16:09:34.212Z,12.00
2023-03-03T16:12:09.535Z,12.07
2023-03-03T16:14:54.103Z,11.20
2023-03-03T16:17:27.579Z,11.48
2023-03-03T16:20:14.155Z,12.10
2023-03-03T16:22:42.324Z,13.27
2023-03-03T16:25:44.467Z,12.07
2023-03-03T16:28:19.796Z,11.53
2023-03-03T16:30:53.193Z,12.33
2023-03-03T16:33:26.942Z,11.03
2023-03-03T16:35:59.012Z,10.32
2023-03-03T16:38:37.591Z,11.23
2023-03-03T16:41:07.276Z,12.30
2023-03-03T16:43:54.332Z,10.02
2023-03-03T16:46:27.688Z,9.55
2023-03-03T16:48:55.806Z,9.60
2023-03-03T16:51:23.966Z,9.95
2023-03-03T16:53:53.966Z,12.18
2023-03-03T16:56:29.060Z,9.40
2023-03-03T16:58:57.146Z,9.40
2023-03-03T17:01:30.046Z,10.23
2023-03-03T17:04:01.888Z,9.70
2023-03-03T17:06:29.952Z,8.80
2023-03-03T17:09:32.526Z,13.68
2023-03-03T17:12:19.793Z,9.00
2023-03-03T17:15:06.878Z,9.10
2023-03-03T17:17:53.855Z,7.37
2023-03-03T17:20:40.238Z,9.70
2023-03-03T17:23:20.689Z,11.80
2023-03-03T17:25:47.821Z,9.40
2023-03-03T17:28:34.828Z,33.03
2023-03-03T17:31:11.098Z,56.37
2023-03-03T17:33:58.091Z,24.02
2023-03-03T17:36:45.996Z,16.65
2023-03-03T17:39:27.905Z,11.25
2023-03-03T17:42:02.720Z,9.73
2023-03-03T17:44:57.542Z,9.77
2023-03-03T17:47:35.174Z,8.45
2023-03-03T17:50:03.386Z,5.75
2023-03-03T17:52:40.167Z,6.60
2023-03-03T17:55:10.536Z,6.53
2023-03-03T17:57:37.709Z,7.23
2023-03-03T18:00:14.205Z,6.67
2023-03-03T18:02:56.841Z,6.35
2023-03-03T18:05:23.946Z,7.40
2023-03-03T18:07:56.473Z,7.63
2023-03-03T18:10:43.542Z,8.15
2023-03-03T18:13:22.336Z,7.97
2023-03-03T18:16:12.285Z,8.65
2023-03-03T18:18:39.593Z,9.00
2023-03-03T18:21:15.882Z,10.65
2023-03-03T18:23:45.371Z,11.27
2023-03-03T18:26:32.381Z,10.75
2023-03-03T18:29:08.232Z,10.93
2023-03-03T18:31:46.110Z,11.68
2023-03-03T18:34:20.698Z,10.57
2023-03-03T18:36:56.607Z,10.17
2023-03-03T18:39:45.576Z,10.25
2023-03-03T18:42:32.697Z,9.95
2023-03-03T18:45:10.476Z,7.78
2023-03-03T18:47:57.513Z,8.95
2023-03-03T18:50:24.594Z,16.15
2023-03-03T18:53:11.602Z,14.70
2023-03-03T18:55:43.487Z,17.03
2023-03-03T18:58:17.892Z,14.75
2023-03-03T19:00:50.669Z,13.18
2023-03-03T19:03:37.810Z,13.50
2023-03-03T19:06:08.437Z,13.52
2023-03-03T19:08:45.214Z,11.95
2023-03-03T19:11:32.409Z,14.20
2023-03-03T19:14:15.273Z,14.20
2023-03-03T19:16:42.456Z,13.95
2023-03-03T19:19:11.760Z,12.93
2023-03-03T19:21:39.671Z,19.33
2023-03-03T19:24:14.639Z,26.92
2023-03-03T19:27:01.608Z,20.58
2023-03-03T19:29:41.532Z,19.10
2023-03-03T19:32:28.564Z,15.85
2023-03-03T19:35:05.185Z,14.35
2023-03-03T19:37:33.546Z,13.57
2023-03-03T19:40:03.947Z,12.88
2023-03-03T19:42:31.038Z,11.73
2023-03-03T19:45:18.060Z,12.65
2023-03-03T19:47:46.158Z,13.00
2023-03-03T19:50:14.331Z,11.90
2023-03-03T19:52:47.217Z,12.20
2023-03-03T19:55:30.608Z,12.55
2023-03-03T19:58:02.768Z,14.18
2023-03-03T20:00:48.222Z,12.23
2023-03-03T20:03:35.293Z,13.97
2023-03-03T20:06:11.081Z,16.93
2023-03-03T20:08:43.473Z,21.95
2023-03-03T20:11:19.058Z,23.67
2023-03-03T20:13:46.159Z,24.08
2023-03-03T20:16:17.480Z,22.55
2023-03-03T20:19:04.524Z,19.98
2023-03-03T20:21:35.864Z,18.98
2023-03-03T20:24:06.228Z,20.52
2023-03-03T20:26:53.252Z,15.48
2023-03-03T20:29:29.479Z,13.60
2023-03-03T20:32:04.701Z,12.77
2023-03-03T20:34:38.179Z,13.20
2023-03-03T20:37:08.790Z,13.82
2023-03-03T20:39:42.632Z,13.27
2023-03-03T20:42:18.810Z,11.88
2023-03-03T20:44:54.059Z,11.88
2023-03-03T20:47:27.193Z,57.25
2023-03-03T20:50:15.597Z,51.83
2023-03-03T20:52:48.887Z,36.80
2023-03-03T20:55:23.867Z,18.25
2023-03-03T20:58:10.821Z,14.57
2023-03-03T21:00:43.338Z,13.88
2023-03-03T21:03:30.425Z,14.27
2023-03-03T21:06:02.201Z,12.55
2023-03-03T21:08:49.752Z,13.10
2023-03-03T21:11:19.512Z,12.13
2023-03-03T21:13:49.247Z,13.23
2023-03-03T21:16:29.047Z,11.25
2023-03-03T21:18:58.267Z,15.73
2023-03-03T21:21:26.321Z,13.88
2023-03-03T21:23:53.491Z,14.07
2023-03-03T21:26:40.541Z,12.38
2023-03-03T21:29:07.659Z,13.55
2023-03-03T21:31:51.739Z,15.55
2023-03-03T21:34:20.457Z,14.38
2023-03-03T21:36:49.194Z,14.88
2023-03-03T21:39:20.345Z,15.13
2023-03-03T21:41:51.946Z,14.13
2023-03-03T21:44:39.026Z,14.52
2023-03-03T21:47:07.176Z,15.85
2023-03-03T21:49:34.563Z,15.48
2023-03-03T21:52:02.147Z,15.55
2023-03-03T21:54:29.400Z,14.00
2023-03-03T21:56:56.611Z,15.00
2023-03-03T21:59:23.761Z,15.43
2023-03-03T22:01:50.855Z,14.45
2023-03-03T22:04:18.017Z,14.93
2023-03-03T22:06:45.431Z,14.57
2023-03-03T22:09:12.587Z,16.75
2023-03-03T22:11:39.682Z,17.90
2023-03-03T22:14:07.569Z,17.17
2023-03-03T22:16:34.930Z,16.30
2023-03-03T22:19:02.868Z,16.30
2023-03-03T22:21:30.248Z,18.42
2023-03-03T22:23:57.507Z,16.17
2023-03-03T22:26:24.632Z,15.98
2023-03-03T22:28:51.769Z,17.67
2023-03-03T22:31:20.240Z,18.83
2023-03-03T22:33:48.297Z,16.70
2023-03-03T22:36:15.988Z,17.23
2023-03-03T22:38:43.425Z,18.50
2023-03-03T22:41:10.494Z,18.70
2023-03-03T22:43:37.842Z,17.73
2023-03-03T22:46:05.387Z,21.02
2023-03-03T22:48:32.615Z,15.70
2023-03-03T22:50:59.735Z,18.92
2023-03-03T22:53:26.883Z,18.50
2023-03-03T22:55:54.115Z,16.90
2023-03-03T22:58:21.643Z,16.48
2023-03-03T23:00:49.445Z,16.40
2023-03-03T23:03:16.999Z,15.50
2023-03-03T23:05:44.098Z,18.33
2023-03-03T23:08:13.413Z,20.17
2023-03-03T23:10:40.604Z,15.45
2023-03-03T23:13:08.282Z,16.63
2023-03-03T23:15:37.204Z,17.05
2023-03-03T23:18:04.483Z,17.52
2023-03-03T23:20:31.793Z,17.95
2023-03-03T23:22:59.224Z,15.80
2023-03-03T23:25:26.677Z,18.00
2023-03-03T23:27:54.060Z,16.55
2023-03-03T23:30:21.955Z,19.70
2023-03-03T23:32:49.451Z,16.87
2023-03-03T23:35:16.892Z,17.92
2023-03-03T23:37:44.930Z,18.20
2023-03-03T23:40:12.362Z,16.92
2023-03-03T23:42:39.672Z,17.02
2023-03-03T23:45:07.072Z,19.00
2023-03-03T23:47:34.223Z,18.37
2023-03-03T23:50:01.374Z,16.65
2023-03-03T23:52:28.462Z,16.25
2023-03-03T23:54:55.611Z,15.63
2023-03-03T23:57:22.737Z,18.70
2023-03-03T23:59:49.886Z,18.05
